Time;durP1;ratioP1;P1;durP2;ratioP2;P2;SDS_P1;SDS_P2;PMS_P1;PMS_P2;Temp;Humidity;BMP_temperature;BMP_pressure;BME280_temperature;BME280_humidity;BME280_pressure;Samples;Min_cycle;Max_cycle;Signal;HPM_P1;HPM_P2
2022/01/26 00:00:07;;;;;;;101.03;42.63;;;3.40;99.90;;;;;;4946918;28;20035;-71
2022/01/26 00:08:02;;;;;;;101.53;42.13;;;3.30;99.90;;;;;;4947454;28;20039;-70
2022/01/26 00:10:28;;;;;;;100.13;43.20;;;3.40;99.90;;;;;;4949602;28;20043;-71
2022/01/26 00:12:54;;;;;;;104.55;43.60;;;3.30;99.90;;;;;;4948058;28;20391;-71
2022/01/26 00:15:20;;;;;;;97.45;41.58;;;3.20;99.90;;;;;;4948253;28;20047;-71
2022/01/26 00:17:45;;;;;;;101.45;40.92;;;3.20;99.90;;;;;;4947861;28;20043;-73
2022/01/26 00:20:24;;;;;;;105.40;43.78;;;3.20;99.90;;;;;;4949706;28;20466;-71
2022/01/26 00:28:07;;;;;;;105.05;41.83;;;3.30;99.90;;;;;;4969944;28;20102;-71
2022/01/26 00:38:41;;;;;;;109.13;43.67;;;3.30;99.90;;;;;;4943064;28;20054;-70
2022/01/26 00:41:12;;;;;;;111.47;42.97;;;3.30;99.90;;;;;;4949940;28;20071;-72
2022/01/26 00:43:54;;;;;;;103.03;42.00;;;3.20;99.90;;;;;;4949017;28;20106;-70
2022/01/26 00:46:20;;;;;;;105.90;42.30;;;3.20;99.90;;;;;;4948277;28;20055;-72
2022/01/26 00:48:46;;;;;;;108.20;42.88;;;3.20;99.90;;;;;;4949726;28;20035;-72
2022/01/26 00:51:16;;;;;;;108.05;42.50;;;3.20;99.90;;;;;;4947660;28;20038;-70
2022/01/26 00:53:48;;;;;;;104.03;41.10;;;3.20;99.90;;;;;;4950294;28;20043;-72
2022/01/26 00:56:14;;;;;;;108.68;42.65;;;3.20;99.90;;;;;;4948716;28;20102;-71
2022/01/26 00:58:40;;;;;;;115.10;44.97;;;3.20;99.90;;;;;;4949102;28;20054;-71
2022/01/26 01:01:06;;;;;;;105.65;42.88;;;3.10;99.90;;;;;;4947548;28;20043;-71
2022/01/26 01:03:36;;;;;;;108.45;41.05;;;3.10;99.90;;;;;;4946487;28;20086;-71
2022/01/26 01:06:24;;;;;;;107.03;43.63;;;3.20;99.90;;;;;;4965416;28;20042;-71
2022/01/26 01:08:50;;;;;;;113.78;43.10;;;3.20;99.90;;;;;;4947427;28;20039;-71
2022/01/26 01:11:17;;;;;;;98.65;39.40;;;3.20;99.90;;;;;;4946812;28;20054;-71
2022/01/26 01:13:43;;;;;;;100.85;39.42;;;3.10;99.90;;;;;;4944220;28;20204;-71
2022/01/26 01:16:16;;;;;;;100.25;38.92;;;3.10;99.90;;;;;;4948606;28;20043;-71
2022/01/26 01:19:05;;;;;;;101.03;40.88;;;3.20;99.90;;;;;;4946784;28;20035;-71
2022/01/26 01:26:58;;;;;;;100.25;39.38;;;3.10;99.90;;;;;;4947105;28;20037;-70
2022/01/26 01:29:46;;;;;;;97.27;38.83;;;3.10;99.90;;;;;;4929576;29;20045;-71
2022/01/26 01:32:27;;;;;;;100.18;38.78;;;3.10;99.90;;;;;;4947388;28;20334;-70
2022/01/26 01:34:52;;;;;;;102.45;39.03;;;3.10;99.90;;;;;;4943871;28;20040;-70
2022/01/26 01:37:18;;;;;;;91.15;38.05;;;3.10;99.90;;;;;;4947841;28;20154;-72
2022/01/26 01:39:44;;;;;;;94.85;37.92;;;3.10;99.90;;;;;;4930125;28;20170;-72
2022/01/26 01:42:10;;;;;;;96.45;38.70;;;3.00;99.90;;;;;;4951072;28;20078;-72
2022/01/26 01:44:37;;;;;;;92.20;38.70;;;3.00;99.90;;;;;;4949656;28;20044;-72
2022/01/26 01:47:05;;;;;;;92.40;38.10;;;2.90;99.90;;;;;;4949619;28;20063;-72
2022/01/26 01:49:31;;;;;;;98.97;39.15;;;2.90;99.90;;;;;;4949678;28;20046;-71
2022/01/26 01:52:01;;;;;;;97.72;39.13;;;3.00;99.90;;;;;;4951302;28;20047;-71
2022/01/26 01:54:27;;;;;;;98.40;37.97;;;2.90;99.90;;;;;;4949172;28;20067;-71
2022/01/26 01:56:57;;;;;;;90.75;36.22;;;2.90;99.90;;;;;;4971728;28;20050;-71
2022/01/26 01:59:25;;;;;;;102.68;40.15;;;2.90;99.90;;;;;;4948976;28;20039;-71
2022/01/26 02:01:51;;;;;;;101.13;39.95;;;3.00;99.90;;;;;;4950623;28;20141;-71
2022/01/26 02:04:17;;;;;;;102.13;39.25;;;3.00;99.90;;;;;;4947419;28;20040;-71
2022/01/26 02:06:43;;;;;;;94.20;37.58;;;2.90;99.90;;;;;;4949907;28;20562;-71
2022/01/26 02:09:10;;;;;;;98.85;39.85;;;2.90;99.90;;;;;;4950161;28;20387;-71
2022/01/26 02:11:43;;;;;;;102.30;40.40;;;2.80;99.90;;;;;;4955419;28;20036;-72
2022/01/26 02:14:16;;;;;;;105.45;41.15;;;2.70;99.90;;;;;;4951320;28;20031;-70
2022/01/26 02:16:50;;;;;;;101.95;39.88;;;2.70;99.90;;;;;;4952231;28;20031;-70
2022/01/26 02:19:45;;;;;;;102.43;39.05;;;2.70;99.90;;;;;;4956000;28;20049;-70
2022/01/26 03:02:34;;;;;;;112.07;43.00;;;2.80;99.90;;;;;;4948371;28;20039;-72
2022/01/26 03:05:03;;;;;;;112.85;41.53;;;2.80;99.90;;;;;;4948602;28;20042;-70
2022/01/26 03:10:05;;;;;;;117.97;41.22;;;2.80;99.90;;;;;;4968400;28;20050;-72
2022/01/26 03:12:46;;;;;;;114.63;43.47;;;2.80;99.90;;;;;;4948680;28;20126;-72
2022/01/26 03:15:24;;;;;;;111.15;41.25;;;2.80;99.90;;;;;;4950480;28;20089;-72
2022/01/26 03:18:23;;;;;;;117.88;40.83;;;2.80;99.90;;;;;;4949035;28;20370;-72
2022/01/26 03:20:49;;;;;;;120.57;40.90;;;2.80;99.90;;;;;;4949785;28;20066;-71
2022/01/26 03:28:57;;;;;;;116.70;43.00;;;2.70;99.90;;;;;;4961442;28;20058;-70
2022/01/26 03:32:03;;;;;;;113.25;39.80;;;2.70;99.90;;;;;;4965223;28;20042;-71
2022/01/26 03:34:21;;;;;;;111.53;41.78;;;2.70;99.90;;;;;;4948194;28;20065;-71
2022/01/26 03:36:57;;;;;;;115.20;43.10;;;2.70;99.90;;;;;;4949326;28;20043;-71
2022/01/26 03:39:24;;;;;;;117.55;43.03;;;2.70;99.90;;;;;;4963177;28;20050;-71
2022/01/26 03:42:23;;;;;;;120.18;41.95;;;2.60;99.90;;;;;;4949241;28;20159;-71
2022/01/26 03:44:45;;;;;;;119.95;41.10;;;2.70;99.90;;;;;;4945703;28;20043;-71
2022/01/26 03:47:11;;;;;;;118.55;40.10;;;2.70;99.90;;;;;;4948243;28;20516;-71
2022/01/26 03:49:37;;;;;;;123.88;43.67;;;2.80;99.90;;;;;;4948303;28;20042;-71
2022/01/26 03:52:06;;;;;;;126.20;44.13;;;2.70;99.90;;;;;;4949803;28;20504;-71
2022/01/26 03:54:32;;;;;;;124.57;42.10;;;2.70;99.90;;;;;;4948195;28;20054;-71
2022/01/26 03:56:58;;;;;;;118.65;41.13;;;2.70;99.90;;;;;;4949232;28;20490;-71
2022/01/26 03:59:24;;;;;;;121.50;42.20;;;2.80;99.90;;;;;;4949430;28;20039;-71
2022/01/26 04:01:49;;;;;;;119.32;42.00;;;2.80;99.90;;;;;;4949109;28;20814;-72
2022/01/26 04:04:15;;;;;;;130.35;43.72;;;2.70;99.90;;;;;;4948888;28;20039;-71
2022/01/26 04:06:41;;;;;;;127.35;43.38;;;2.70;99.90;;;;;;4949028;28;20083;-72
2022/01/26 04:09:09;;;;;;;125.13;43.47;;;2.70;99.90;;;;;;4948542;28;20494;-71
2022/01/26 04:11:39;;;;;;;121.68;41.83;;;2.70;99.90;;;;;;4948881;28;20043;-71
2022/01/26 04:14:09;;;;;;;126.65;42.72;;;2.70;99.90;;;;;;4947341;28;20035;-71
2022/01/26 04:16:35;;;;;;;121.55;41.47;;;2.70;99.90;;;;;;4942673;28;20039;-72
2022/01/26 04:19:02;;;;;;;120.88;42.28;;;2.70;99.90;;;;;;4945764;28;20097;-71
2022/01/26 04:26:59;;;;;;;125.18;40.97;;;2.80;99.90;;;;;;4946756;28;20090;-71
2022/01/26 04:29:33;;;;;;;115.28;40.20;;;2.80;99.90;;;;;;4965806;28;20114;-71
2022/01/26 04:32:01;;;;;;;114.07;41.13;;;2.80;99.90;;;;;;4945882;28;20142;-71
2022/01/26 04:34:28;;;;;;;125.10;42.42;;;2.90;99.90;;;;;;4944574;28;20062;-71
2022/01/26 04:37:05;;;;;;;120.40;40.25;;;2.90;99.90;;;;;;4945724;28;20035;-71
2022/01/26 04:39:37;;;;;;;112.82;39.95;;;2.80;99.90;;;;;;4948597;28;20433;-71
2022/01/26 04:42:09;;;;;;;121.10;40.45;;;2.80;99.90;;;;;;4961631;28;20050;-71
2022/01/26 04:44:42;;;;;;;116.57;40.92;;;2.80;99.90;;;;;;4947667;28;20039;-71
2022/01/26 04:47:08;;;;;;;114.95;40.15;;;2.80;99.90;;;;;;4963859;28;20046;-71
2022/01/26 04:49:34;;;;;;;123.35;41.22;;;2.80;99.90;;;;;;4948915;28;20481;-71
2022/01/26 04:52:00;;;;;;;130.60;41.78;;;2.80;99.90;;;;;;4948750;28;20050;-71
2022/01/26 04:54:26;;;;;;;120.32;39.90;;;2.70;99.90;;;;;;4948263;28;20063;-71
2022/01/26 04:56:52;;;;;;;120.72;41.38;;;2.80;99.90;;;;;;4948732;28;20492;-71
2022/01/26 04:59:17;;;;;;;119.88;41.45;;;2.70;99.90;;;;;;4947383;28;20083;-71
2022/01/26 05:01:43;;;;;;;109.90;38.53;;;2.70;99.90;;;;;;4947941;28;20405;-71
2022/01/26 05:04:09;;;;;;;113.63;38.97;;;2.80;99.90;;;;;;4949732;28;20051;-72
2022/01/26 05:06:35;;;;;;;110.63;38.13;;;2.80;99.90;;;;;;4931284;28;20509;-69
2022/01/26 05:09:01;;;;;;;106.50;37.22;;;2.80;99.90;;;;;;4948330;28;20047;-71
2022/01/26 05:11:39;;;;;;;108.60;39.25;;;2.80;99.90;;;;;;4947679;28;20039;-70
2022/01/26 05:14:07;;;;;;;115.88;38.95;;;2.70;99.90;;;;;;4950534;28;20398;-71
2022/01/26 05:16:33;;;;;;;112.82;38.70;;;2.80;99.90;;;;;;4949937;28;20046;-71
2022/01/26 05:18:59;;;;;;;102.13;37.58;;;2.80;99.90;;;;;;4952437;28;20043;-71
2022/01/26 05:21:28;;;;;;;108.18;38.50;;;2.80;99.90;;;;;;4968427;28;20047;-71
2022/01/26 05:23:54;;;;;;;109.20;37.72;;;2.80;99.90;;;;;;4932728;28;20035;-72
2022/01/26 05:26:19;;;;;;;101.28;36.50;;;2.80;99.90;;;;;;4952423;28;20382;-72
2022/01/26 05:28:45;;;;;;;104.30;35.17;;;2.80;99.90;;;;;;4947927;28;20039;-72
2022/01/26 05:31:11;;;;;;;98.32;36.38;;;2.80;99.90;;;;;;4950430;28;20043;-71
2022/01/26 05:33:37;;;;;;;105.47;36.88;;;2.70;99.90;;;;;;4950729;28;20062;-72
2022/01/26 05:36:04;;;;;;;103.13;35.78;;;2.80;99.90;;;;;;4950484;28;20125;-72
2022/01/26 05:38:29;;;;;;;98.97;34.50;;;2.70;99.90;;;;;;4951439;28;20051;-72
2022/01/26 05:40:57;;;;;;;96.60;34.35;;;2.70;99.90;;;;;;4949315;28;20050;-72
2022/01/26 05:43:23;;;;;;;100.38;34.85;;;2.70;99.90;;;;;;4951726;28;20043;-71
2022/01/26 05:45:53;;;;;;;96.28;33.65;;;2.80;99.90;;;;;;4971397;28;20043;-71
2022/01/26 05:48:18;;;;;;;99.07;33.83;;;2.70;99.90;;;;;;4951038;28;20093;-71
2022/01/26 05:50:51;;;;;;;92.72;32.58;;;2.80;99.90;;;;;;4949879;28;20052;-71
2022/01/26 05:53:20;;;;;;;100.10;33.72;;;2.70;99.90;;;;;;4958138;28;20122;-70
2022/01/26 05:55:48;;;;;;;85.75;32.47;;;2.80;99.90;;;;;;4967626;28;20027;-70
2022/01/26 05:58:14;;;;;;;83.35;31.10;;;2.70;99.90;;;;;;4951789;28;20070;-70
2022/01/26 06:00:40;;;;;;;86.97;31.10;;;2.70;99.90;;;;;;4948732;28;20039;-70
2022/01/26 06:03:05;;;;;;;84.07;30.92;;;2.80;99.90;;;;;;4951749;28;20097;-70
2022/01/26 06:05:31;;;;;;;84.78;31.67;;;2.80;99.90;;;;;;4952227;28;20083;-71
2022/01/26 06:07:57;;;;;;;81.25;31.02;;;2.80;99.90;;;;;;4974789;28;20047;-70
2022/01/26 06:10:22;;;;;;;88.28;31.35;;;2.80;99.90;;;;;;4934694;28;20047;-70
2022/01/26 06:12:48;;;;;;;82.35;30.75;;;2.80;99.90;;;;;;4956927;28;21827;-70
2022/01/26 06:15:15;;;;;;;77.30;30.33;;;2.80;99.90;;;;;;4949418;28;20256;-71
2022/01/26 06:17:41;;;;;;;83.72;30.02;;;2.80;99.90;;;;;;4947950;28;20051;-71
2022/01/26 06:20:07;;;;;;;78.88;28.33;;;2.70;99.90;;;;;;4949018;28;20039;-71
2022/01/26 06:22:33;;;;;;;70.90;28.10;;;2.70;99.90;;;;;;4949311;28;20141;-71
2022/01/26 06:25:04;;;;;;;78.00;29.27;;;2.80;99.90;;;;;;4950892;28;20051;-71
2022/01/26 06:27:30;;;;;;;76.82;28.15;;;2.70;99.90;;;;;;4949464;28;20050;-71
2022/01/26 06:29:56;;;;;;;72.88;28.35;;;2.70;99.90;;;;;;4964768;28;20113;-71
2022/01/26 06:32:21;;;;;;;82.22;29.23;;;2.70;99.90;;;;;;4932250;28;20047;-71
2022/01/26 06:34:47;;;;;;;72.50;28.17;;;2.70;99.90;;;;;;4948646;28;20043;-71
2022/01/26 06:37:15;;;;;;;78.85;27.88;;;2.70;99.90;;;;;;4950466;28;20054;-71
2022/01/26 06:39:41;;;;;;;78.57;29.15;;;2.70;99.90;;;;;;4968487;28;20058;-71
2022/01/26 06:42:12;;;;;;;76.20;28.60;;;2.70;99.90;;;;;;4968761;28;20039;-71
2022/01/26 06:44:48;;;;;;;76.82;29.00;;;2.70;99.90;;;;;;4945435;28;20050;-70
2022/01/26 06:49:52;;;;;;;72.75;27.92;;;2.70;99.90;;;;;;4950387;28;20545;-70
2022/01/26 06:52:18;;;;;;;70.13;29.63;;;2.70;99.90;;;;;;4948631;28;20233;-70
2022/01/26 06:54:44;;;;;;;73.13;29.45;;;2.60;99.90;;;;;;4950207;28;20049;-70
2022/01/26 06:57:10;;;;;;;68.80;27.73;;;2.70;99.90;;;;;;4948815;28;20051;-70
2022/01/26 06:59:36;;;;;;;73.63;28.48;;;2.80;99.90;;;;;;4948597;28;20067;-71
2022/01/26 07:02:02;;;;;;;72.85;28.33;;;2.70;99.90;;;;;;4950807;28;20047;-70
2022/01/26 07:04:28;;;;;;;69.10;28.38;;;2.70;99.90;;;;;;4948110;28;20054;-70
2022/01/26 07:06:53;;;;;;;70.85;28.80;;;2.70;99.90;;;;;;4947073;28;20062;-70
2022/01/26 07:09:19;;;;;;;69.75;29.60;;;2.70;99.90;;;;;;4946859;28;20135;-70
2022/01/26 07:11:45;;;;;;;73.60;30.23;;;2.70;99.90;;;;;;4946908;28;20039;-70
2022/01/26 07:14:17;;;;;;;79.50;31.55;;;2.60;99.90;;;;;;4949892;28;20367;-71
2022/01/26 07:19:50;;;;;;;74.25;29.17;;;2.70;99.90;;;;;;4949288;28;20046;-71
2022/01/26 07:22:12;;;;;;;73.10;29.05;;;2.70;99.90;;;;;;4957539;28;20047;-70
2022/01/26 07:24:38;;;;;;;74.95;30.83;;;2.60;99.90;;;;;;4933094;28;20043;-68
2022/01/26 07:27:04;;;;;;;75.93;31.70;;;2.60;99.90;;;;;;4950681;28;20054;-70
2022/01/26 07:29:31;;;;;;;76.55;32.08;;;2.70;99.90;;;;;;4961335;28;20051;-70
2022/01/26 07:31:58;;;;;;;77.10;32.50;;;2.60;99.90;;;;;;4946084;28;20048;-70
2022/01/26 07:34:24;;;;;;;82.32;31.95;;;2.70;99.90;;;;;;4954857;28;20539;-70
2022/01/26 07:36:53;;;;;;;78.88;31.70;;;2.70;99.90;;;;;;4957537;28;20117;-70
2022/01/26 07:39:29;;;;;;;81.25;33.33;;;2.70;99.90;;;;;;4951355;28;20047;-70
2022/01/26 07:41:56;;;;;;;78.10;30.70;;;2.80;99.90;;;;;;4950606;28;20043;-71
2022/01/26 07:44:21;;;;;;;78.80;32.38;;;2.80;99.90;;;;;;4956295;28;20058;-71
2022/01/26 07:46:47;;;;;;;80.90;32.13;;;2.90;99.90;;;;;;4957516;28;20058;-70
2022/01/26 07:49:12;;;;;;;86.70;35.50;;;2.90;99.90;;;;;;4955120;28;20053;-70
2022/01/26 07:51:38;;;;;;;87.78;34.97;;;2.90;99.90;;;;;;4971261;28;20047;-71
2022/01/26 07:54:04;;;;;;;90.68;33.75;;;2.90;99.90;;;;;;4921912;28;20055;-71
2022/01/26 07:56:29;;;;;;;96.57;38.38;;;2.90;99.90;;;;;;4954872;28;20039;-71
2022/01/26 07:58:56;;;;;;;97.47;38.70;;;2.90;99.90;;;;;;4949406;28;20038;-70
2022/01/26 08:01:23;;;;;;;91.63;39.05;;;2.90;99.90;;;;;;4950673;28;20453;-70
2022/01/26 08:03:49;;;;;;;95.63;38.58;;;2.90;99.90;;;;;;4952279;28;20039;-69
2022/01/26 08:06:17;;;;;;;100.65;41.97;;;2.90;99.90;;;;;;4954573;28;20039;-70
2022/01/26 08:08:43;;;;;;;101.38;42.35;;;2.90;99.90;;;;;;4947450;28;20054;-70
2022/01/26 08:11:09;;;;;;;101.70;42.38;;;2.90;99.90;;;;;;4952133;28;20653;-71
2022/01/26 08:13:35;;;;;;;110.60;45.63;;;2.90;99.90;;;;;;4945949;28;20548;-70
2022/01/26 08:16:01;;;;;;;111.40;46.35;;;2.90;99.90;;;;;;4957661;28;20043;-71
2022/01/26 08:18:26;;;;;;;110.72;46.78;;;2.90;99.90;;;;;;4936585;28;20051;-70
2022/01/26 08:20:52;;;;;;;115.97;49.08;;;2.90;99.90;;;;;;4956088;28;20073;-71
2022/01/26 08:23:20;;;;;;;124.90;53.45;;;2.90;99.90;;;;;;4953387;28;20043;-71
2022/01/26 08:25:50;;;;;;;131.75;55.35;;;2.90;99.90;;;;;;4952346;28;20126;-71
2022/01/26 08:28:23;;;;;;;131.75;53.80;;;3.00;99.90;;;;;;4953474;28;20122;-70
2022/01/26 08:30:49;;;;;;;132.40;53.95;;;3.00;99.90;;;;;;4952502;28;20055;-69
2022/01/26 08:33:15;;;;;;;144.50;59.80;;;3.00;99.90;;;;;;4953926;28;20051;-71
2022/01/26 08:35:41;;;;;;;133.38;58.47;;;3.10;99.90;;;;;;4953551;28;20045;-71
2022/01/26 08:38:07;;;;;;;139.88;60.67;;;3.00;99.90;;;;;;4955234;28;20485;-70
2022/01/26 08:40:33;;;;;;;142.73;60.95;;;3.00;99.90;;;;;;4950516;28;20121;-71
2022/01/26 08:43:00;;;;;;;137.15;60.92;;;3.10;99.90;;;;;;4969597;28;20146;-69
2022/01/26 08:45:26;;;;;;;147.30;61.67;;;3.10;99.90;;;;;;4952429;28;20881;-71
2022/01/26 08:47:52;;;;;;;150.93;62.60;;;3.10;99.90;;;;;;4954066;28;20045;-71
2022/01/26 08:50:17;;;;;;;143.75;61.92;;;3.10;99.90;;;;;;4951424;28;20545;-70
2022/01/26 08:52:44;;;;;;;150.30;62.75;;;3.10;99.90;;;;;;4943520;28;20043;-71
2022/01/26 08:55:10;;;;;;;151.70;62.72;;;3.10;99.90;;;;;;4955951;28;20134;-71
2022/01/26 08:57:37;;;;;;;152.10;65.72;;;3.10;99.90;;;;;;4957712;28;20418;-69
2022/01/26 09:00:08;;;;;;;153.13;68.18;;;3.10;99.90;;;;;;4955723;28;20622;-70
2022/01/26 09:02:37;;;;;;;149.50;61.97;;;3.10;99.90;;;;;;4957646;28;20094;-71
2022/01/26 09:05:04;;;;;;;159.38;66.30;;;3.10;99.90;;;;;;4955216;28;20105;-70
2022/01/26 09:07:31;;;;;;;159.38;68.13;;;3.20;99.90;;;;;;4941563;28;20536;-71
2022/01/26 09:09:59;;;;;;;148.98;63.80;;;3.20;99.90;;;;;;4957031;28;20536;-71
2022/01/26 09:12:27;;;;;;;153.48;64.50;;;3.20;99.90;;;;;;4957389;28;20043;-72
2022/01/26 09:14:54;;;;;;;161.27;69.72;;;3.30;99.90;;;;;;4972463;28;20039;-71
2022/01/26 09:17:20;;;;;;;154.73;66.95;;;3.30;99.90;;;;;;4961162;28;20039;-72
2022/01/26 09:19:48;;;;;;;163.95;66.82;;;3.20;99.90;;;;;;4938246;28;20042;-72
2022/01/26 09:22:16;;;;;;;164.88;74.47;;;3.30;99.90;;;;;;4955765;28;20408;-72
2022/01/26 09:24:44;;;;;;;168.88;72.85;;;3.30;99.90;;;;;;4961852;28;20404;-72
2022/01/26 09:27:14;;;;;;;168.90;70.95;;;3.30;99.90;;;;;;4948993;28;20053;-71
2022/01/26 09:29:41;;;;;;;171.18;71.07;;;3.30;99.90;;;;;;4955076;28;20430;-71
2022/01/26 09:32:07;;;;;;;167.98;68.35;;;3.40;99.90;;;;;;4958275;28;20476;-72
2022/01/26 09:34:37;;;;;;;169.50;71.47;;;3.40;99.90;;;;;;4960610;28;20417;-71
2022/01/26 09:37:12;;;;;;;166.07;66.47;;;3.30;99.90;;;;;;4961615;28;20065;-71
2022/01/26 09:39:39;;;;;;;163.38;65.32;;;3.40;99.90;;;;;;4951598;28;20421;-71
2022/01/26 09:42:05;;;;;;;164.02;66.60;;;3.40;99.90;;;;;;4952912;28;21848;-72
2022/01/26 09:44:31;;;;;;;155.98;64.65;;;3.40;99.90;;;;;;4948581;28;20599;-72
2022/01/26 09:46:57;;;;;;;149.45;63.47;;;3.50;99.90;;;;;;4949264;28;20043;-72
2022/01/26 09:49:31;;;;;;;149.07;61.80;;;3.50;99.90;;;;;;4958790;28;20051;-72
2022/01/26 09:52:00;;;;;;;154.32;63.33;;;3.60;99.90;;;;;;4958502;28;20519;-71
2022/01/26 09:54:30;;;;;;;154.57;64.75;;;3.60;99.90;;;;;;4954457;28;20482;-71
2022/01/26 09:57:01;;;;;;;149.73;61.45;;;3.60;99.90;;;;;;4949796;28;20608;-71
2022/01/26 09:59:27;;;;;;;144.52;62.08;;;3.70;99.90;;;;;;4951001;28;20406;-72
2022/01/26 10:01:52;;;;;;;152.88;63.65;;;3.70;99.90;;;;;;4952074;28;20039;-71
2022/01/26 10:04:24;;;;;;;151.57;64.03;;;3.70;99.90;;;;;;4949737;28;20191;-71
2022/01/26 10:15:34;;;;;;;146.68;61.92;;;3.80;99.90;;;;;;4950338;28;20539;-72
2022/01/26 10:18:14;;;;;;;143.23;59.63;;;3.80;99.90;;;;;;4949935;28;20410;-71
2022/01/26 10:20:44;;;;;;;136.43;58.15;;;3.80;99.90;;;;;;4954974;28;20674;-69
2022/01/26 10:23:16;;;;;;;135.90;59.92;;;3.80;99.90;;;;;;4945506;28;20046;-70
2022/01/26 10:25:44;;;;;;;137.63;59.03;;;3.90;99.90;;;;;;4950940;28;20047;-71
2022/01/26 10:28:11;;;;;;;137.20;60.28;;;3.90;99.90;;;;;;4935836;28;20394;-72
2022/01/26 10:30:41;;;;;;;144.30;60.90;;;3.90;99.90;;;;;;4950985;28;20039;-70
2022/01/26 10:33:08;;;;;;;134.07;58.28;;;3.90;99.90;;;;;;4951833;28;20047;-70
2022/01/26 10:35:34;;;;;;;135.80;59.50;;;3.90;99.90;;;;;;4947671;28;20102;-71
2022/01/26 10:38:00;;;;;;;131.68;57.20;;;3.90;99.90;;;;;;4933707;28;20047;-72
2022/01/26 10:40:28;;;;;;;121.05;52.47;;;3.90;99.90;;;;;;4949321;28;20050;-71
2022/01/26 10:43:06;;;;;;;128.73;53.83;;;4.00;99.90;;;;;;4950626;28;20146;-70
2022/01/26 10:46:04;;;;;;;121.72;52.67;;;4.00;99.90;;;;;;4958352;28;20157;-72
2022/01/26 10:48:54;;;;;;;117.30;49.75;;;4.00;99.90;;;;;;4951144;28;20421;-71
2022/01/26 10:51:35;;;;;;;111.57;52.25;;;4.00;99.90;;;;;;4970459;28;21047;-71
2022/01/26 10:54:11;;;;;;;111.47;50.45;;;4.10;99.90;;;;;;4951130;28;20043;-71
2022/01/26 10:56:37;;;;;;;106.70;49.00;;;4.10;99.90;;;;;;4957197;28;20038;-72
2022/01/26 10:59:03;;;;;;;105.60;49.63;;;4.10;99.90;;;;;;4957845;28;20043;-71
2022/01/26 11:01:30;;;;;;;109.85;50.20;;;4.10;99.90;;;;;;4951554;28;20050;-72
2022/01/26 11:03:56;;;;;;;108.05;50.28;;;4.10;99.90;;;;;;4956481;28;20043;-70
2022/01/26 11:06:22;;;;;;;105.25;49.72;;;4.20;99.90;;;;;;4936551;28;20527;-72
2022/01/26 11:08:48;;;;;;;106.32;47.78;;;4.20;99.90;;;;;;4948909;28;20042;-72
2022/01/26 11:11:23;;;;;;;105.20;47.30;;;4.20;99.90;;;;;;4931032;28;20122;-71
2022/01/26 11:13:49;;;;;;;103.28;47.50;;;4.20;99.90;;;;;;4946831;28;20047;-72
2022/01/26 11:16:16;;;;;;;108.10;46.88;;;4.20;99.90;;;;;;4950583;28;20038;-72
2022/01/26 11:18:51;;;;;;;103.60;47.25;;;4.20;99.90;;;;;;4947885;28;20513;-72
2022/01/26 11:21:34;;;;;;;105.28;48.10;;;4.20;99.90;;;;;;4948277;28;20040;-72
2022/01/26 11:24:24;;;;;;;105.32;47.92;;;4.30;99.90;;;;;;4964923;28;20061;-72
2022/01/26 11:27:03;;;;;;;100.97;44.17;;;4.30;99.90;;;;;;4947450;28;20046;-71
2022/01/26 11:29:33;;;;;;;102.53;49.38;;;4.30;99.90;;;;;;4948754;28;20494;-71
2022/01/26 11:32:05;;;;;;;103.93;47.40;;;4.30;99.90;;;;;;4948953;28;21977;-72
2022/01/26 11:34:34;;;;;;;111.50;47.58;;;4.30;99.90;;;;;;4954350;28;20035;-72
2022/01/26 11:37:00;;;;;;;104.50;47.42;;;4.30;99.90;;;;;;4944845;28;20128;-71
2022/01/26 11:42:34;;;;;;;102.90;49.42;;;4.20;99.90;;;;;;4955637;28;20066;-70
2022/01/26 11:45:08;;;;;;;105.43;47.05;;;4.30;99.90;;;;;;4971107;28;20075;-71
2022/01/26 11:47:37;;;;;;;103.30;47.90;;;4.30;99.90;;;;;;4955907;28;20050;-71
2022/01/26 11:50:14;;;;;;;104.43;46.60;;;4.30;99.90;;;;;;4956819;28;20035;-70
2022/01/26 11:52:40;;;;;;;98.50;46.42;;;4.30;99.90;;;;;;4955067;28;20079;-71
2022/01/26 11:55:23;;;;;;;105.10;46.03;;;4.30;99.90;;;;;;4951910;28;20043;-70
2022/01/26 11:57:52;;;;;;;103.90;46.05;;;4.30;99.90;;;;;;4942273;29;20039;-71
2022/01/26 12:00:47;;;;;;;95.38;45.35;;;4.30;99.90;;;;;;4947286;28;20036;-71
2022/01/26 12:03:31;;;;;;;93.97;44.25;;;4.30;99.90;;;;;;4948530;28;20046;-71
2022/01/26 12:05:58;;;;;;;91.90;43.60;;;4.40;99.90;;;;;;4948410;28;20075;-72
2022/01/26 12:08:42;;;;;;;97.13;45.88;;;4.30;99.90;;;;;;4930792;28;20046;-72
2022/01/26 12:11:11;;;;;;;90.63;44.40;;;4.40;99.90;;;;;;4938257;28;20039;-72
2022/01/26 12:13:38;;;;;;;90.60;45.15;;;4.40;99.90;;;;;;4951465;28;20047;-72
2022/01/26 12:16:12;;;;;;;90.18;42.50;;;4.40;99.90;;;;;;4953084;28;20042;-72
2022/01/26 12:18:50;;;;;;;93.07;44.72;;;4.40;99.90;;;;;;4973776;28;20039;-72
2022/01/26 12:35:23;;;;;;;92.25;44.78;;;4.40;99.90;;;;;;4953236;28;20047;-71
2022/01/26 12:37:57;;;;;;;91.90;40.85;;;4.40;99.90;;;;;;4934428;28;20132;-71
2022/01/26 12:43:15;;;;;;;100.40;45.65;;;4.50;99.90;;;;;;4956627;28;20035;-71
2022/01/26 12:45:41;;;;;;;100.38;46.50;;;4.40;99.90;;;;;;4954959;28;20035;-71
2022/01/26 12:48:09;;;;;;;95.68;45.95;;;4.40;99.90;;;;;;4951026;28;20544;-71
2022/01/26 12:50:36;;;;;;;110.50;46.22;;;4.40;99.90;;;;;;4951831;28;20043;-71
2022/01/26 12:53:02;;;;;;;94.50;45.42;;;4.30;99.90;;;;;;4954812;28;20043;-70
2022/01/26 12:55:35;;;;;;;96.05;45.03;;;4.50;99.90;;;;;;4951135;28;20062;-71
2022/01/26 12:58:02;;;;;;;74.40;35.60;;;4.40;99.90;;;;;;4948113;28;22759;-71
2022/01/26 13:01:02;;;;;;;88.45;42.35;;;4.30;99.90;;;;;;4950097;28;20043;-70
2022/01/26 13:03:38;;;;;;;94.15;43.25;;;4.50;99.90;;;;;;4941946;28;20479;-72
2022/01/26 13:06:13;;;;;;;96.10;45.25;;;4.40;99.90;;;;;;4948586;28;20046;-72
2022/01/26 13:08:50;;;;;;;90.85;41.17;;;4.40;99.90;;;;;;4951941;28;20073;-72
2022/01/26 13:11:29;;;;;;;93.90;42.13;;;4.40;99.90;;;;;;4951608;28;20051;-72
2022/01/26 13:14:25;;;;;;;94.72;43.78;;;4.40;99.90;;;;;;4956410;28;20062;-72
2022/01/26 13:17:22;;;;;;;96.68;40.33;;;4.40;99.90;;;;;;4958253;28;20078;-73
2022/01/26 13:22:48;;;;;;;100.85;41.03;;;4.50;99.90;;;;;;4967531;28;20074;-70
2022/01/26 13:25:36;;;;;;;96.15;44.40;;;4.50;99.90;;;;;;4952919;28;20166;-71
2022/01/26 13:31:19;;;;;;;101.38;45.70;;;4.50;99.90;;;;;;4952425;28;20058;-71
2022/01/26 13:36:33;;;;;;;89.50;39.88;;;4.40;99.90;;;;;;4952630;28;20085;-71
2022/01/26 13:39:12;;;;;;;95.53;41.92;;;4.50;99.90;;;;;;4955206;28;20502;-69
2022/01/26 13:41:48;;;;;;;96.10;41.05;;;4.50;99.90;;;;;;4953572;28;20057;-71
2022/01/26 13:44:48;;;;;;;102.35;43.33;;;4.60;99.90;;;;;;4956477;28;20125;-71
2022/01/26 13:55:25;;;;;;;90.03;41.40;;;4.60;99.90;;;;;;4962837;28;20050;-71
2022/01/26 14:00:23;;;;;;;83.45;40.42;;;4.60;99.90;;;;;;4949223;28;20047;-71
2022/01/26 14:02:54;;;;;;;96.50;42.30;;;4.50;99.90;;;;;;4956688;28;20039;-71
2022/01/26 14:05:23;;;;;;;91.80;44.05;;;4.60;99.90;;;;;;4959301;28;20087;-75
2022/01/26 14:07:49;;;;;;;96.88;45.42;;;4.60;99.90;;;;;;4955848;28;20039;-75
2022/01/26 14:10:15;;;;;;;91.38;42.22;;;4.60;99.90;;;;;;4957858;28;20418;-75
2022/01/26 14:12:46;;;;;;;91.78;41.45;;;4.50;99.90;;;;;;4959361;28;20118;-75
2022/01/26 14:15:12;;;;;;;82.57;39.78;;;4.50;99.90;;;;;;4959928;28;20034;-76
2022/01/26 14:23:02;;;;;;;86.32;40.90;;;4.60;99.90;;;;;;4952551;28;20055;-71
2022/01/26 14:25:30;;;;;;;93.90;43.78;;;4.60;99.90;;;;;;4942516;28;20090;-72
2022/01/26 14:28:03;;;;;;;84.03;39.40;;;4.70;99.90;;;;;;4953746;28;20047;-71
2022/01/26 15:19:09;;;;;;;85.95;39.22;;;4.90;99.90;;;;;;4951219;28;20047;-71
2022/01/26 15:43:38;;;;;;;80.03;37.58;;;4.90;99.90;;;;;;4951403;28;20073;-71
2022/01/26 15:49:41;;;;;;;78.85;39.13;;;4.90;99.90;;;;;;4947155;28;20039;-71
2022/01/26 16:37:43;;;;;;;74.50;34.75;;;5.20;99.90;;;;;;4943766;28;20047;-71
2022/01/26 17:02:19;;;;;;;75.45;35.72;;;5.20;99.90;;;;;;4947568;28;20043;-72
2022/01/26 17:24:22;;;;;;;75.32;35.92;;;5.30;99.90;;;;;;4952161;28;20042;-70
2022/01/26 18:13:00;;;;;;;61.85;34.85;;;5.50;99.90;;;;;;4949694;28;20047;-71
2022/01/26 18:13:19;;;;;;;62.80;32.92;;;5.60;99.90;;;;;;4965333;28;20066;-71
2022/01/26 18:15:39;;;;;;;62.50;31.17;;;5.60;99.90;;;;;;4948790;28;20137;-71
2022/01/26 18:50:44;;;;;;;55.78;30.67;;;5.70;99.90;;;;;;4946176;28;20051;-71
2022/01/26 18:53:11;;;;;;;61.55;29.27;;;5.70;99.90;;;;;;4946085;28;20078;-71
2022/01/26 18:55:37;;;;;;;60.88;31.23;;;5.70;99.90;;;;;;4943271;28;20119;-71
2022/01/26 18:58:03;;;;;;;55.47;30.38;;;5.80;99.90;;;;;;4946576;28;20514;-71